General Aviation Weather

Text Reports

Enter one or more of the following location identifiers separated by a space:

Zip Code, Four-Character ICAO or Three-Character IATA airport codes.

METAR - Aviation Routine Weather Report
KSKX - Taos, New Mexico
Updated at 2:55 AM GMT on October 23, 2014 (8:55 PM MDT):
METAR KSKX 230255Z AUTO 03003KT 10SM FEW100 09/M01 A3027 RMK AO1 52020
TAF - Terminal Area Forecast
KSKX - Taos, New Mexico
Updated at 2:55 AM GMT on October 23, 2014 (8:55 PM MDT):
No TAF is currently available for this location.
Decoded:
No decoded TAF is available.
PIREP - Pilot Weather Report
KSKX - Taos, New Mexico
Updated at 2:55 AM GMT on October 23, 2014 (8:55 PM MDT):
No PIREP is currently available for this location.
AIRMET - Airmens Meteorological Information
KSKX - Taos, New Mexico
Updated at 2:55 AM GMT on October 23, 2014 (8:55 PM MDT):
No AIRMET is currently available for this location.
SIGMET - Significant Meteorological Information
KSKX - Taos, New Mexico
Updated at 2:55 AM GMT on October 23, 2014 (8:55 PM MDT):
No SIGMET is currently available for this location.
NOTAM - Notice to Airmen
KSKX - Taos, New Mexico
Updated at 2:55 AM GMT on October 23, 2014 (8:55 PM MDT):
No NOTAM is currently available for this location.
Forecast Area
KSKX - Taos, New Mexico
Updated at 2:55 AM GMT on October 23, 2014 (8:55 PM MDT):
No NOTAM is currently available for this location.
Aviation Weather Maps